Time;durP1;ratioP1;P1;durP2;ratioP2;P2;SDS_P1;SDS_P2;PMS_P1;PMS_P2;Temp;Humidity;BMP_temperature;BMP_pressure;BME280_temperature;BME280_humidity;BME280_pressure;Samples;Min_cycle;Max_cycle;Signal;HPM_P1;HPM_P2
2021/11/25 00:00:14;;;;;;;;;50.00;40.00;;;;;8.71;57.39;100831.59;5000168;28;45441;-48
2021/11/25 00:02:40;;;;;;;;;39.25;36.00;;;;;8.71;57.60;100817.63;5002195;28;45566;-45
2021/11/25 00:05:06;;;;;;;;;50.75;42.25;;;;;8.73;57.37;100827.22;5002875;28;45403;-46
2021/11/25 00:07:32;;;;;;;;;48.00;39.00;;;;;8.72;57.58;100811.50;5002911;28;45406;-45
2021/11/25 00:09:57;;;;;;;;;43.50;37.00;;;;;8.73;57.57;100811.50;5002940;28;45418;-46
2021/11/25 00:12:23;;;;;;;;;40.00;36.75;;;;;8.72;57.39;100798.41;5002873;28;45251;-45
2021/11/25 00:14:48;;;;;;;;;43.75;37.00;;;;;8.74;57.41;100805.38;5002552;28;46229;-46
2021/11/25 00:17:14;;;;;;;;;44.50;37.25;;;;;8.74;57.24;100808.00;5002735;28;45205;-48
2021/11/25 00:19:39;;;;;;;;;37.50;34.00;;;;;8.72;57.41;100809.75;5001181;28;45678;-48
2021/11/25 00:22:05;;;;;;;;;38.50;35.25;;;;;8.65;57.21;100794.06;5002703;28;45324;-45
2021/11/25 00:24:30;;;;;;;;;41.25;37.00;;;;;8.74;57.38;100813.25;5002487;28;45990;-46
2021/11/25 00:26:56;;;;;;;;;44.25;37.00;;;;;8.73;57.65;100814.13;5001479;28;45251;-47
2021/11/25 00:29:21;;;;;;;;;40.50;36.50;;;;;8.72;57.45;100812.38;5002651;28;45231;-48
2021/11/25 00:31:47;;;;;;;;;44.25;36.50;;;;;8.73;57.50;100808.00;5002682;28;45429;-48
2021/11/25 00:34:13;;;;;;;;;37.50;36.00;;;;;8.69;57.29;100806.28;5002466;28;46011;-45
2021/11/25 00:36:38;;;;;;;;;35.50;33.50;;;;;8.73;57.52;100808.88;5002520;28;45394;-48
2021/11/25 00:39:03;;;;;;;;;46.25;36.75;;;;;8.72;57.21;100796.66;5002511;28;45288;-46
2021/11/25 00:41:29;;;;;;;;;50.00;39.25;;;;;8.71;57.36;100800.16;5001183;28;45513;-47
2021/11/25 00:43:54;;;;;;;;;38.75;34.00;;;;;8.71;57.56;100794.03;5002303;28;46199;-48
2021/11/25 00:46:20;;;;;;;;;42.25;36.50;;;;;8.67;57.51;100785.34;5000873;28;45319;-47
2021/11/25 00:48:45;;;;;;;;;43.75;36.00;;;;;8.70;57.43;100776.56;5002578;28;45266;-46
2021/11/25 00:51:11;;;;;;;;;50.75;39.75;;;;;8.69;57.41;100778.34;5002284;28;45326;-48
2021/11/25 00:53:36;;;;;;;;;39.75;37.25;;;;;8.67;57.34;100782.72;5002267;28;46338;-46
2021/11/25 00:56:02;;;;;;;;;48.00;39.00;;;;;8.66;57.10;100775.72;5002111;28;45480;-46
2021/11/25 00:58:27;;;;;;;;;51.75;40.00;;;;;8.66;57.23;100780.09;5002411;28;45388;-48
2021/11/25 01:00:53;;;;;;;;;50.50;41.25;;;;;8.62;57.36;100766.16;5001482;28;45549;-48
2021/11/25 01:03:18;;;;;;;;;51.25;41.50;;;;;8.62;57.49;100771.38;5001911;28;46062;-47
2021/11/25 01:05:44;;;;;;;;;51.25;42.25;;;;;8.61;57.24;100772.25;5002027;28;45276;-46
2021/11/25 01:08:09;;;;;;;;;47.75;37.50;;;;;8.58;57.18;100773.16;5002283;28;45229;-50
2021/11/25 01:10:35;;;;;;;;;48.00;40.00;;;;;8.56;57.44;100781.91;5001875;28;45241;-48
2021/11/25 01:13:01;;;;;;;;;51.00;38.75;;;;;8.54;57.39;100781.03;5001127;28;46293;-49
2021/11/25 01:15:29;;;;;;;;;46.25;39.75;;;;;8.49;57.43;100782.81;5001744;28;45276;-46
2021/11/25 01:18:15;;;;;;;;;46.00;37.25;;;;;8.50;57.42;100795.03;5002125;28;45350;-46
2021/11/25 01:20:42;;;;;;;;;44.50;36.25;;;;;8.48;57.12;100794.16;5000449;28;45337;-47
2021/11/25 01:23:11;;;;;;;;;35.75;32.00;;;;;8.44;57.46;100796.75;5000379;28;46105;-49
2021/11/25 01:25:38;;;;;;;;;38.00;34.75;;;;;8.41;57.37;100788.91;5001736;28;45158;-49
2021/11/25 01:28:04;;;;;;;;;33.75;31.50;;;;;8.38;57.25;100791.53;5001991;28;45500;-46
2021/11/25 01:30:30;;;;;;;;;33.00;29.75;;;;;8.38;57.55;100788.06;5001367;28;45387;-45
2021/11/25 01:32:56;;;;;;;;;32.25;27.25;;;;;8.36;57.47;100790.66;5001595;28;45444;-46
2021/11/25 01:35:21;;;;;;;;;35.00;31.25;;;;;8.36;57.29;100800.28;5001647;28;45311;-48
2021/11/25 01:37:50;;;;;;;;;37.00;31.75;;;;;8.34;57.38;100802.91;5001903;28;45344;-47
2021/11/25 01:40:17;;;;;;;;;29.25;27.25;;;;;8.33;57.64;100798.56;5001266;28;45236;-48
2021/11/25 01:42:43;;;;;;;;;33.50;30.00;;;;;8.33;57.52;100801.19;5001370;28;47123;-45
2021/11/25 01:45:11;;;;;;;;;34.25;30.50;;;;;8.32;57.45;100795.94;4999987;28;45374;-48
2021/11/25 01:47:48;;;;;;;;;37.00;31.50;;;;;8.30;57.27;100790.69;5001398;28;45351;-45
2021/11/25 01:50:16;;;;;;;;;35.75;31.50;;;;;8.29;57.38;100795.06;5001026;28;45601;-46
2021/11/25 01:52:42;;;;;;;;;37.00;33.75;;;;;8.31;57.29;100795.06;5001261;28;45258;-46
2021/11/25 01:55:08;;;;;;;;;44.00;37.00;;;;;8.30;57.39;100790.69;5001303;28;45531;-46
2021/11/25 01:57:33;;;;;;;;;38.75;34.00;;;;;8.29;57.11;100789.84;5001452;28;45409;-45
2021/11/25 01:59:59;;;;;;;;;38.50;34.25;;;;;8.29;57.31;100787.22;4996488;28;45598;-49
2021/11/25 02:02:24;;;;;;;;;44.00;36.75;;;;;8.29;57.27;100786.38;4996366;28;46280;-48
2021/11/25 02:04:50;;;;;;;;;50.25;40.25;;;;;8.28;57.54;100780.22;5001173;28;45362;-45
2021/11/25 02:07:17;;;;;;;;;41.00;36.25;;;;;8.28;57.46;100780.22;4999990;28;45366;-46
2021/11/25 02:09:42;;;;;;;;;38.25;35.75;;;;;8.26;57.45;100776.78;5001116;28;45330;-47
2021/11/25 02:12:08;;;;;;;;;39.75;35.75;;;;;8.27;57.50;100778.50;4999726;28;48603;-46
2021/11/25 02:14:33;;;;;;;;;50.50;39.25;;;;;8.26;57.75;100784.63;5000857;28;45236;-50
2021/11/25 02:16:59;;;;;;;;;40.00;34.00;;;;;8.27;57.33;100788.09;4999789;28;45248;-46
2021/11/25 02:19:26;;;;;;;;;41.75;37.00;;;;;8.27;57.78;100781.09;5001176;28;45598;-45
2021/11/25 02:21:51;;;;;;;;;42.75;36.25;;;;;8.27;57.55;100775.00;4982244;28;45545;-49
2021/11/25 02:24:17;;;;;;;;;36.00;33.75;;;;;8.27;57.40;100772.41;5000763;28;45238;-45
2021/11/25 02:26:42;;;;;;;;;42.00;35.25;;;;;8.25;57.81;100774.13;5001085;28;45754;-46
2021/11/25 02:29:07;;;;;;;;;43.75;36.75;;;;;8.27;57.72;100780.25;5000709;28;45537;-47
2021/11/25 02:31:33;;;;;;;;;41.00;35.50;;;;;8.27;57.65;100780.25;5000742;28;45229;-49
2021/11/25 02:33:58;;;;;;;;;37.75;33.50;;;;;8.26;57.62;100775.88;4999550;28;45324;-47
2021/11/25 02:36:24;;;;;;;;;39.75;34.50;;;;;8.26;57.72;100771.53;5000905;28;45308;-48
2021/11/25 02:38:50;;;;;;;;;38.25;34.00;;;;;8.27;57.49;100772.41;5000753;28;45577;-45
2021/11/25 02:41:15;;;;;;;;;43.25;35.75;;;;;8.27;57.69;100775.88;5000594;28;45352;-48
2021/11/25 02:43:41;;;;;;;;;37.75;34.00;;;;;8.24;57.42;100765.44;4999340;28;45304;-50
2021/11/25 02:46:09;;;;;;;;;36.25;33.75;;;;;8.25;57.66;100768.91;5000467;28;45314;-51
2021/11/25 02:48:42;;;;;;;;;38.25;34.25;;;;;8.25;57.65;100774.13;5000618;28;45378;-46
2021/11/25 02:51:09;;;;;;;;;43.50;34.00;;;;;8.24;57.73;100773.28;5000365;28;46239;-49
2021/11/25 02:53:36;;;;;;;;;43.00;35.75;;;;;8.22;57.78;100761.94;5000635;28;45218;-46
2021/11/25 02:56:10;;;;;;;;;37.00;35.00;;;;;8.23;57.47;100763.69;5000437;28;45297;-45
2021/11/25 02:58:36;;;;;;;;;38.25;34.25;;;;;8.23;57.64;100771.53;5000529;28;45444;-45
2021/11/25 03:01:14;;;;;;;;;32.75;31.75;;;;;8.22;57.90;100764.56;4998344;28;46228;-45
2021/11/25 03:03:39;;;;;;;;;30.75;29.75;;;;;8.22;57.47;100766.31;5000327;28;45453;-47
2021/11/25 03:06:05;;;;;;;;;37.75;33.00;;;;;8.22;57.48;100766.31;5000193;28;45413;-48
2021/11/25 03:08:30;;;;;;;;;40.50;34.25;;;;;8.22;57.75;100776.78;5000267;28;45441;-45
2021/11/25 03:11:04;;;;;;;;;34.75;32.00;;;;;8.22;57.75;100776.78;4999813;28;46281;-46
2021/11/25 03:13:31;;;;;;;;;30.00;27.50;;;;;8.19;57.75;100767.19;4999193;28;45467;-47
2021/11/25 03:15:57;;;;;;;;;35.25;30.25;;;;;8.22;57.81;100761.06;4998803;28;45344;-49
2021/11/25 03:18:22;;;;;;;;;39.25;32.25;;;;;8.21;57.76;100749.72;4998855;28;45503;-45
2021/11/25 03:20:50;;;;;;;;;37.00;33.50;;;;;8.21;57.74;100738.38;5000023;28;45311;-47
2021/11/25 03:23:20;;;;;;;;;34.75;32.25;;;;;8.21;57.74;100746.25;5000039;28;45162;-50
2021/11/25 03:25:47;;;;;;;;;35.00;31.25;;;;;8.21;57.71;100752.31;5000187;28;45390;-45
2021/11/25 03:28:13;;;;;;;;;38.25;33.50;;;;;8.20;57.73;100748.00;4999959;28;45240;-46
2021/11/25 03:30:40;;;;;;;;;33.75;31.25;;;;;8.21;57.74;100741.00;4999690;28;45547;-49
2021/11/25 03:33:08;;;;;;;;;40.25;34.00;;;;;8.21;57.61;100744.47;5000111;28;45315;-49
2021/11/25 03:35:34;;;;;;;;;27.50;27.25;;;;;8.21;57.72;100736.63;5001331;28;45188;-46
2021/11/25 03:37:59;;;;;;;;;33.00;32.00;;;;;8.22;57.52;100737.50;5003391;28;45281;-47
2021/11/25 03:40:25;;;;;;;;;34.75;30.75;;;;;8.21;57.77;100730.53;4982203;28;46087;-45
2021/11/25 03:42:50;;;;;;;;;36.00;33.00;;;;;8.21;57.88;100735.78;4998250;28;45333;-47
2021/11/25 03:45:16;;;;;;;;;32.50;29.50;;;;;8.20;57.80;100739.25;5003178;28;45296;-48
2021/11/25 03:47:44;;;;;;;;;38.25;33.75;;;;;8.19;57.81;100738.41;5003129;28;45494;-48
2021/11/25 03:50:09;;;;;;;;;32.25;29.75;;;;;8.20;57.61;100745.38;5003108;28;46338;-46
2021/11/25 03:52:35;;;;;;;;;37.75;30.50;;;;;8.20;57.80;100748.00;5003202;28;45214;-46
2021/11/25 03:55:01;;;;;;;;;31.75;29.00;;;;;8.21;57.51;100747.09;5003350;28;45435;-46
2021/11/25 03:57:27;;;;;;;;;41.00;34.25;;;;;8.22;57.84;100747.97;5003552;28;45205;-45
2021/11/25 03:59:53;;;;;;;;;41.00;32.75;;;;;8.20;57.60;100748.00;5002757;28;46566;-46
2021/11/25 04:02:20;;;;;;;;;31.25;29.00;;;;;8.23;57.83;100752.34;4999666;28;46278;-46
2021/11/25 04:04:46;;;;;;;;;33.25;28.50;;;;;8.22;57.76;100737.50;5003242;28;45254;-50
2021/11/25 04:07:11;;;;;;;;;27.25;26.75;;;;;8.21;57.80;100741.84;5003011;28;45304;-49
2021/11/25 04:09:37;;;;;;;;;35.75;33.00;;;;;8.21;57.78;100739.25;5002733;28;46296;-48
2021/11/25 04:12:02;;;;;;;;;32.00;30.00;;;;;8.22;57.68;100742.75;5002796;28;45443;-48
2021/11/25 04:14:28;;;;;;;;;28.00;28.00;;;;;8.22;57.56;100746.22;5001610;28;45332;-50
2021/11/25 04:16:53;;;;;;;;;35.00;30.50;;;;;8.23;57.69;100749.72;5002844;28;45455;-49
2021/11/25 04:19:18;;;;;;;;;26.75;24.75;;;;;8.23;57.78;100749.72;5001545;28;46235;-48
2021/11/25 04:21:44;;;;;;;;;33.75;30.75;;;;;8.20;57.66;100744.50;5002805;28;45169;-49
2021/11/25 04:24:09;;;;;;;;;32.75;29.50;;;;;8.23;57.77;100744.50;5002822;28;45924;-47
2021/11/25 04:26:34;;;;;;;;;29.50;26.50;;;;;8.24;57.72;100741.00;5002728;28;45431;-47
2021/11/25 04:29:00;;;;;;;;;29.00;27.50;;;;;8.26;57.95;100739.22;5002367;28;45242;-49
2021/11/25 04:36:54;;;;;;;;;28.75;26.50;;;;;8.24;57.65;100734.00;5001487;28;45414;-45
2021/11/25 04:39:20;;;;;;;;;29.75;27.25;;;;;8.22;57.68;100732.28;5002413;28;45229;-47
2021/11/25 04:41:45;;;;;;;;;29.50;27.00;;;;;8.24;57.65;100739.25;5000992;28;45172;-46
2021/11/25 04:44:11;;;;;;;;;34.00;29.00;;;;;8.23;57.58;100736.66;5002344;28;45389;-47
2021/11/25 04:46:36;;;;;;;;;35.00;30.75;;;;;8.22;57.75;100737.50;5001304;28;45475;-46
2021/11/25 04:49:03;;;;;;;;;29.50;28.00;;;;;8.21;57.76;100735.78;5002448;28;45189;-46
2021/11/25 04:51:29;;;;;;;;;28.25;26.75;;;;;8.19;57.49;100732.28;5002225;28;45406;-45
2021/11/25 04:53:56;;;;;;;;;38.00;30.50;;;;;8.14;57.50;100725.31;5002229;28;45493;-46
2021/11/25 04:56:21;;;;;;;;;29.75;28.50;;;;;8.15;57.32;100731.44;5000990;28;45527;-48
2021/11/25 04:58:47;;;;;;;;;30.00;27.25;;;;;8.13;57.50;100735.81;5002390;28;45303;-45
2021/11/25 05:01:12;;;;;;;;;31.75;29.25;;;;;8.11;57.43;100737.53;5001415;28;45233;-46
2021/11/25 05:03:37;;;;;;;;;35.25;32.00;;;;;8.08;57.47;100727.09;5002286;28;45751;-47
2021/11/25 05:06:03;;;;;;;;;28.00;27.25;;;;;8.06;57.25;100727.13;5002180;28;45368;-49
2021/11/25 05:08:29;;;;;;;;;32.25;30.00;;;;;8.03;57.53;100723.63;5002016;28;46382;-48
2021/11/25 05:10:54;;;;;;;;;36.25;31.25;;;;;8.01;57.44;100725.38;5001777;28;45220;-49
2021/11/25 05:13:20;;;;;;;;;29.50;27.00;;;;;7.97;57.48;100728.03;5002175;28;45611;-46
2021/11/25 05:15:45;;;;;;;;;36.00;28.75;;;;;7.93;57.61;100721.03;5001477;28;45379;-44
2021/11/25 05:18:11;;;;;;;;;32.00;25.25;;;;;7.91;57.31;100717.56;5001928;28;45921;-47
2021/11/25 05:20:37;;;;;;;;;29.00;25.75;;;;;7.87;57.24;100717.59;5001666;28;45240;-46
2021/11/25 05:23:02;;;;;;;;;27.00;27.00;;;;;7.85;57.62;100725.44;5001852;28;45285;-45
2021/11/25 05:25:28;;;;;;;;;35.50;27.00;;;;;7.81;57.66;100735.03;5000271;28;46022;-44
2021/11/25 05:27:53;;;;;;;;;32.00;28.00;;;;;7.76;57.49;100733.28;5001872;28;46286;-47
2021/11/25 05:30:20;;;;;;;;;33.75;30.00;;;;;7.75;57.47;100734.19;5001246;28;45352;-43
2021/11/25 05:32:46;;;;;;;;;31.25;30.00;;;;;7.70;57.33;100734.19;5001903;28;45360;-48
2021/11/25 05:35:14;;;;;;;;;37.75;28.25;;;;;7.65;57.41;100725.50;5001549;28;45433;-47
2021/11/25 05:37:41;;;;;;;;;32.00;29.50;;;;;7.67;57.49;100742.03;5001751;28;45379;-48
2021/11/25 05:40:10;;;;;;;;;33.50;29.25;;;;;7.63;57.66;100745.53;5000766;28;45217;-44
2021/11/25 05:42:36;;;;;;;;;41.00;32.00;;;;;7.60;57.38;100745.56;5000848;28;45407;-43
2021/11/25 05:45:04;;;;;;;;;36.50;31.50;;;;;7.58;57.32;100749.91;4999957;28;45404;-45
2021/11/25 05:47:34;;;;;;;;;37.00;34.00;;;;;7.55;57.49;100755.16;5001233;28;46176;-46
2021/11/25 05:50:03;;;;;;;;;42.50;34.75;;;;;7.53;57.36;100757.75;4999948;28;45478;-47
2021/11/25 05:52:29;;;;;;;;;40.25;35.25;;;;;7.51;57.52;100766.47;5001395;28;45383;-50
2021/11/25 05:54:54;;;;;;;;;40.75;34.50;;;;;7.47;57.38;100769.13;5001374;28;45223;-48
2021/11/25 05:57:20;;;;;;;;;38.00;33.25;;;;;7.45;57.57;100768.22;5013925;28;45926;-49
2021/11/25 05:59:45;;;;;;;;;43.25;36.25;;;;;7.42;57.33;100768.25;5008640;28;45257;-47
2021/11/25 06:02:11;;;;;;;;;33.50;30.75;;;;;7.40;57.43;100767.38;5009766;28;45399;-47
2021/11/25 06:04:37;;;;;;;;;44.75;37.75;;;;;7.38;57.55;100768.25;5012090;28;45653;-46
2021/11/25 06:07:02;;;;;;;;;45.25;36.00;;;;;7.36;57.52;100765.63;4999922;28;46610;-45
2021/11/25 06:09:28;;;;;;;;;38.00;34.75;;;;;7.33;57.49;100765.63;5000876;28;45158;-45
2021/11/25 06:11:53;;;;;;;;;46.00;38.00;;;;;7.28;57.46;100768.25;5001277;28;45286;-48
2021/11/25 06:14:18;;;;;;;;;50.00;40.00;;;;;7.27;57.32;100779.56;5003344;28;45429;-49
2021/11/25 06:16:44;;;;;;;;;49.00;39.00;;;;;7.24;57.42;100782.19;4999407;28;46011;-49
2021/11/25 06:19:09;;;;;;;;;52.75;40.50;;;;;7.23;57.42;100784.78;5000935;28;45369;-45
2021/11/25 06:21:36;;;;;;;;;52.50;40.50;;;;;7.20;57.53;100774.34;4999724;28;45394;-50
2021/11/25 06:24:01;;;;;;;;;52.50;40.75;;;;;7.07;57.56;100750.81;5000573;28;45402;-48
2021/11/25 06:26:27;;;;;;;;;50.25;41.50;;;;;7.12;57.71;100769.13;5000732;28;45394;-49
2021/11/25 06:28:54;;;;;;;;;51.25;42.25;;;;;7.11;57.76;100773.47;4999371;28;45339;-50
2021/11/25 06:31:22;;;;;;;;;54.50;42.25;;;;;7.07;57.48;100774.34;5001007;28;45300;-46
2021/11/25 06:33:47;;;;;;;;;57.75;45.00;;;;;7.06;57.79;100783.03;5000603;28;45396;-46
2021/11/25 06:36:12;;;;;;;;;53.75;40.75;;;;;7.03;57.70;100780.44;5000419;28;45216;-46
2021/11/25 06:38:38;;;;;;;;;54.50;43.00;;;;;7.02;57.77;100786.53;5000610;28;45414;-44
2021/11/25 06:41:07;;;;;;;;;45.75;39.50;;;;;6.96;57.95;100789.13;4999500;28;45370;-49
2021/11/25 06:43:33;;;;;;;;;49.25;40.50;;;;;6.97;57.72;100786.53;4999123;28;45721;-48
2021/11/25 06:45:58;;;;;;;;;55.75;44.25;;;;;6.93;57.74;100786.50;5004164;28;46241;-47
2021/11/25 06:48:23;;;;;;;;;56.50;43.00;;;;;6.91;57.85;100789.13;5008801;28;45218;-48
2021/11/25 06:50:49;;;;;;;;;55.25;44.25;;;;;6.90;57.70;100789.13;4998636;28;45273;-47
2021/11/25 06:53:14;;;;;;;;;59.75;46.00;;;;;6.87;57.90;100797.81;5004719;28;45591;-51
2021/11/25 06:55:39;;;;;;;;;55.25;43.50;;;;;6.84;57.87;100803.03;5011481;28;48390;-45
2021/11/25 06:58:05;;;;;;;;;56.50;44.00;;;;;6.82;57.95;100792.59;5015381;28;45236;-46
2021/11/25 07:00:30;;;;;;;;;53.25;41.75;;;;;6.82;57.88;100797.81;5001197;28;45197;-48
2021/11/25 07:02:56;;;;;;;;;56.25;44.00;;;;;6.79;57.92;100804.75;4995214;28;45246;-49
2021/11/25 07:05:25;;;;;;;;;61.00;46.25;;;;;6.79;57.80;100815.22;5018992;28;46056;-49
2021/11/25 07:07:51;;;;;;;;;48.50;39.75;;;;;6.75;57.72;100809.09;5019251;28;45347;-48
2021/11/25 07:10:16;;;;;;;;;57.25;47.00;;;;;6.73;57.95;100816.09;4986664;28;45317;-46
2021/11/25 07:12:42;;;;;;;;;58.75;44.25;;;;;6.71;57.86;100806.50;4999899;28;45277;-47
2021/11/25 07:15:10;;;;;;;;;58.75;44.00;;;;;6.70;57.90;100809.97;5006367;28;45491;-49
2021/11/25 07:17:36;;;;;;;;;56.75;46.00;;;;;6.66;58.07;100811.69;5018212;28;45338;-46
2021/11/25 07:20:02;;;;;;;;;62.00;46.25;;;;;6.64;57.81;100810.81;4986827;28;45935;-48
2021/11/25 07:22:29;;;;;;;;;58.00;46.00;;;;;6.64;58.16;100810.81;5011979;28;45667;-47
2021/11/25 07:24:55;;;;;;;;;64.00;47.50;;;;;6.61;57.90;100819.50;5004029;28;45603;-46
2021/11/25 07:27:20;;;;;;;;;50.50;39.25;;;;;6.60;57.89;100828.25;5011218;28;45525;-45
2021/11/25 07:29:45;;;;;;;;;59.25;47.50;;;;;6.58;57.99;100827.34;4998116;28;45380;-49
2021/11/25 07:32:11;;;;;;;;;55.00;42.50;;;;;6.56;58.19;100828.22;5013464;28;45732;-50
2021/11/25 07:34:36;;;;;;;;;59.25;45.75;;;;;6.55;57.92;100826.47;5019080;28;45363;-49
2021/11/25 07:37:03;;;;;;;;;58.00;46.75;;;;;6.54;58.13;100835.16;5021026;28;46594;-46
2021/11/25 07:39:29;;;;;;;;;59.50;48.50;;;;;6.50;57.97;100840.38;5011258;28;45519;-48
2021/11/25 07:41:54;;;;;;;;;61.25;46.00;;;;;6.51;58.07;100841.25;5012263;28;45265;-46
2021/11/25 07:44:19;;;;;;;;;57.25;43.25;;;;;6.47;58.05;100842.97;4997820;28;45233;-47
2021/11/25 07:46:45;;;;;;;;;61.25;47.00;;;;;6.50;58.16;100852.53;4999513;28;45228;-47
2021/11/25 07:49:10;;;;;;;;;65.00;48.25;;;;;6.49;58.06;100867.34;4999246;28;45377;-46
2021/11/25 07:51:37;;;;;;;;;56.25;46.25;;;;;6.48;58.35;100863.00;4999218;28;45487;-51
2021/11/25 07:54:07;;;;;;;;;64.50;48.75;;;;;6.49;57.98;100871.69;4998569;28;47167;-48
2021/11/25 07:56:33;;;;;;;;;58.50;46.75;;;;;6.48;58.22;100880.41;4999133;28;45395;-50
2021/11/25 07:58:58;;;;;;;;;60.00;47.50;;;;;6.47;58.05;100886.50;4999001;28;45305;-47
2021/11/25 08:01:23;;;;;;;;;58.50;46.00;;;;;6.48;58.26;100894.31;4998937;28;45402;-51
2021/11/25 08:03:49;;;;;;;;;60.25;50.50;;;;;6.49;58.24;100897.78;4998894;28;45420;-46
2021/11/25 08:06:14;;;;;;;;;57.00;46.00;;;;;6.48;58.43;100888.22;4999397;28;45265;-47
2021/11/25 08:08:42;;;;;;;;;62.75;49.50;;;;;6.49;58.33;100890.84;4998959;28;45814;-50
2021/11/25 08:11:07;;;;;;;;;61.50;45.00;;;;;6.47;58.33;100887.34;4999034;28;45536;-48
2021/11/25 08:13:32;;;;;;;;;61.75;48.50;;;;;6.53;58.31;100888.22;4998604;28;45277;-49
2021/11/25 08:15:59;;;;;;;;;62.25;49.50;;;;;6.54;58.43;100893.50;4997558;28;45298;-46
2021/11/25 08:18:24;;;;;;;;;57.25;47.00;;;;;6.54;58.28;100893.50;4999069;28;45584;-49
2021/11/25 08:20:50;;;;;;;;;58.75;47.00;;;;;6.58;58.51;100897.84;4999324;28;45403;-51
2021/11/25 08:23:15;;;;;;;;;62.50;47.75;;;;;6.60;58.35;100903.97;5002015;28;46203;-53
2021/11/25 08:25:41;;;;;;;;;62.50;48.75;;;;;6.59;58.37;100898.72;5002533;28;45352;-52
2021/11/25 08:28:07;;;;;;;;;68.00;50.00;;;;;6.63;58.33;100903.97;5002378;28;45430;-49
2021/11/25 08:30:33;;;;;;;;;60.25;48.00;;;;;6.63;58.63;100900.50;5000761;28;45345;-52
2021/11/25 08:32:58;;;;;;;;;59.25;46.00;;;;;6.69;58.51;100907.47;5001989;28;46165;-51
2021/11/25 08:35:25;;;;;;;;;57.50;47.50;;;;;6.69;58.43;100903.09;5000971;28;45357;-50
2021/11/25 08:37:51;;;;;;;;;65.75;50.00;;;;;6.71;58.64;100906.63;5002195;28;45465;-51
2021/11/25 08:40:16;;;;;;;;;62.75;46.75;;;;;6.78;58.62;100908.38;5002019;28;45387;-51
2021/11/25 08:42:44;;;;;;;;;58.25;46.75;;;;;6.81;58.67;100911.00;5001732;28;46201;-49
2021/11/25 08:45:10;;;;;;;;;61.75;46.75;;;;;6.81;58.71;100912.75;5000312;28;45396;-53
2021/11/25 08:47:36;;;;;;;;;62.50;47.25;;;;;6.88;58.70;100913.63;5002227;28;45404;-53
2021/11/25 08:50:04;;;;;;;;;67.25;49.00;;;;;6.92;58.58;100905.81;5002183;28;45424;-53
2021/11/25 08:52:30;;;;;;;;;60.75;48.00;;;;;6.97;58.73;100892.78;5001453;28;45387;-52
2021/11/25 08:54:55;;;;;;;;;65.25;51.00;;;;;7.00;58.82;100888.41;5002009;28;45417;-55
2021/11/25 08:57:21;;;;;;;;;63.50;46.00;;;;;7.05;58.69;100891.06;5001787;28;45159;-53
2021/11/25 08:59:46;;;;;;;;;59.50;47.50;;;;;7.07;59.03;100888.44;5001311;28;45202;-53
2021/11/25 09:02:12;;;;;;;;;58.00;46.25;;;;;7.13;58.84;100891.97;5001523;28;45263;-52
2021/11/25 09:04:37;;;;;;;;;58.00;46.75;;;;;7.19;58.90;100893.69;5002070;28;45246;-53
2021/11/25 09:07:04;;;;;;;;;63.50;50.50;;;;;7.24;58.76;100901.56;5001977;28;45476;-53
2021/11/25 09:09:29;;;;;;;;;66.25;50.00;;;;;7.27;59.06;100889.38;5001836;28;45409;-53
2021/11/25 09:11:55;;;;;;;;;66.75;52.00;;;;;7.33;59.04;100888.50;5001757;28;45505;-53
2021/11/25 09:14:20;;;;;;;;;71.50;54.00;;;;;7.40;59.07;100892.88;5001573;28;45320;-54
2021/11/25 09:16:47;;;;;;;;;69.75;53.00;;;;;7.45;59.01;100883.28;5001994;28;45230;-53
2021/11/25 09:19:12;;;;;;;;;58.75;46.50;;;;;7.52;58.81;100885.91;5001761;28;45325;-54
2021/11/25 09:21:38;;;;;;;;;63.00;48.25;;;;;7.58;59.02;100891.16;5001569;28;46028;-53
2021/11/25 09:24:05;;;;;;;;;65.75;49.00;;;;;7.66;59.12;100889.41;5001427;28;45267;-52
2021/11/25 09:26:31;;;;;;;;;64.00;50.75;;;;;7.72;59.10;100875.44;5001643;28;45241;-54
2021/11/25 09:28:59;;;;;;;;;63.00;50.00;;;;;7.81;59.17;100878.94;5001286;28;45512;-53
2021/11/25 09:31:30;;;;;;;;;64.75;49.25;;;;;7.88;59.02;100878.94;5001302;28;46180;-52
2021/11/25 09:33:55;;;;;;;;;62.00;49.75;;;;;7.99;59.30;100882.41;5000812;28;45335;-53
2021/11/25 09:36:23;;;;;;;;;63.00;48.50;;;;;8.09;58.95;100876.28;5001499;28;45380;-52
2021/11/25 09:38:49;;;;;;;;;60.00;46.75;;;;;8.20;59.03;100883.25;5000149;28;45500;-54
2021/11/25 09:41:14;;;;;;;;;55.25;44.75;;;;;8.29;59.22;100870.16;5001178;28;45277;-54
2021/11/25 09:43:41;;;;;;;;;56.50;44.75;;;;;8.39;59.32;100884.06;4999546;28;45449;-53
2021/11/25 09:46:09;;;;;;;;;59.50;47.75;;;;;8.49;59.14;100879.72;5015279;28;45406;-53
2021/11/25 09:48:34;;;;;;;;;60.75;46.75;;;;;8.61;59.31;100887.53;5001501;28;45214;-54
2021/11/25 09:51:01;;;;;;;;;62.75;49.25;;;;;8.72;59.35;100890.13;4998550;28;46571;-53
2021/11/25 09:53:28;;;;;;;;;61.75;49.75;;;;;8.82;59.35;100872.59;5001029;28;45258;-53
2021/11/25 09:55:54;;;;;;;;;61.00;47.75;;;;;8.90;59.22;100873.44;4999717;28;45202;-54
2021/11/25 09:58:23;;;;;;;;;59.25;47.50;;;;;9.00;59.26;100872.50;5001162;28;45365;-54
2021/11/25 10:01:07;;;;;;;;;60.75;47.00;;;;;9.13;59.22;100878.53;5000195;28;48082;-54
2021/11/25 10:03:35;;;;;;;;;55.50;44.25;;;;;9.23;59.39;100885.47;4999700;28;45380;-53
2021/11/25 10:06:00;;;;;;;;;57.00;47.00;;;;;9.33;59.45;100882.78;4999786;28;45344;-52
2021/11/25 10:08:28;;;;;;;;;64.75;49.50;;;;;9.43;59.50;100890.59;5001191;28;45357;-52
2021/11/25 10:11:13;;;;;;;;;59.00;47.25;;;;;9.51;59.40;100880.03;5000867;28;46196;-53
2021/11/25 10:13:47;;;;;;;;;59.50;46.00;;;;;9.65;59.39;100897.41;4999035;28;45464;-53
2021/11/25 10:16:20;;;;;;;;;59.25;46.00;;;;;9.73;59.44;100892.97;5001135;28;45354;-55
2021/11/25 10:18:46;;;;;;;;;61.50;48.25;;;;;9.82;59.06;100887.66;5000753;28;45347;-54
2021/11/25 10:21:18;;;;;;;;;57.00;46.75;;;;;9.91;59.43;100882.34;5000656;28;46932;-55
2021/11/25 10:23:49;;;;;;;;;58.50;45.00;;;;;10.02;59.26;100882.22;4998289;28;45246;-55
2021/11/25 10:26:41;;;;;;;;;55.75;43.75;;;;;10.14;59.22;100889.13;5000939;28;45499;-55
2021/11/25 10:29:10;;;;;;;;;55.00;44.25;;;;;10.24;59.38;100877.63;5013442;28;45476;-55
2021/11/25 10:31:42;;;;;;;;;55.50;45.75;;;;;10.33;59.27;100870.53;4999212;28;48072;-53
2021/11/25 10:34:11;;;;;;;;;54.50;44.50;;;;;10.48;59.24;100880.03;5000559;28;45363;-53
2021/11/25 10:36:53;;;;;;;;;56.75;47.00;;;;;10.59;59.14;100883.41;5000640;28;45337;-55
2021/11/25 10:42:15;;;;;;;;;61.75;49.25;;;;;10.85;59.19;100879.56;5000348;28;46071;-52
2021/11/25 10:44:45;;;;;;;;;57.50;46.00;;;;;10.95;59.25;100883.81;4996277;28;45444;-53
2021/11/25 10:47:15;;;;;;;;;60.00;47.25;;;;;11.05;59.03;100877.53;5000671;28;45166;-54
2021/11/25 10:49:52;;;;;;;;;63.75;49.00;;;;;11.17;59.01;100875.63;5000080;28;45360;-54
2021/11/25 10:52:28;;;;;;;;;56.25;46.25;;;;;11.28;59.21;100871.09;4999828;28;46431;-54
2021/11/25 10:55:03;;;;;;;;;55.50;43.75;;;;;11.38;58.93;100866.53;4998969;28;45280;-55
2021/11/25 10:57:53;;;;;;;;;55.75;44.50;;;;;11.47;58.94;100862.91;5000367;28;45412;-53
2021/11/25 11:00:29;;;;;;;;;59.00;48.00;;;;;11.55;58.94;100863.66;4999220;28;45539;-53
2021/11/25 11:03:10;;;;;;;;;56.25;46.00;;;;;11.62;58.88;100862.66;4999888;28;47154;-52
2021/11/25 11:05:47;;;;;;;;;60.75;45.00;;;;;11.68;58.83;100859.94;5000113;28;45225;-53
2021/11/25 11:08:13;;;;;;;;;53.75;44.00;;;;;11.72;58.74;100858.09;5000295;28;45266;-50
2021/11/25 11:10:50;;;;;;;;;55.75;45.25;;;;;11.78;58.63;100860.63;4999851;28;45318;-51
2021/11/25 11:13:32;;;;;;;;;59.25;47.00;;;;;11.83;58.63;100852.66;4998452;28;46955;-51
2021/11/25 11:21:07;;;;;;;;;59.00;45.00;;;;;11.91;58.61;100844.63;5000045;28;45277;-50
2021/11/25 11:23:33;;;;;;;;;58.75;45.75;;;;;11.92;58.42;100839.31;5000251;28;45478;-50
2021/11/25 11:25:59;;;;;;;;;58.50;46.75;;;;;11.93;58.41;100842.84;4999876;28;45241;-53
2021/11/25 11:28:26;;;;;;;;;56.00;44.75;;;;;11.94;58.32;100844.56;5000066;28;45347;-54